Search for airport 
image banner adimage banner adimage banner ad
image banner ad

KSUX - Sioux Gateway/Col Bud Day Field

Located in Sioux City, United States

ICAO - SUX, IATA - SUX

Data provided by Airmate  

General information

Coordinates: N42°24'5" W96°23'4"
Elevation is 1098 feet MSL.
Magnetic variation is 03° East
View others Airports in Iowa

Operational data

Special qualification required
Current time UTC:
Current local time:
Weather
METAR: KSUX 181652Z 12008KT 10SM CLR 28/15 A2988 RMK AO2 SLP108 T02830150
TAF: KSUX 181124Z 1812/1912 32008KT P6SM FEW060 SCT100 FM181500 08009KT P6SM FEW070 SCT150 FM190200 VRB05KT P6SM FEW250 FM190700 35006KT P6SM FEW250
View NOTAMs / SUP AIP / TFR affecting this airport [VIEW]
Communications frequencies: [VIEW]

Runways:

RWY identifierQFULength (ft)Width (ft)SurfaceLDA (ft)
13136°9002150CONC9002
31316°9002150CONC9002
17181°6600150ASPH6598
356600150ASPH6598
18181°6401100ASPH6598
366401100ASPH6598

Airport contact information

Address: Sioux City United States

Satellite view of KSUX